createdAt,value
2018-10-06T00:00:20.938Z,92.59
2018-10-06T00:02:49.907Z,92.88
2018-10-06T00:05:18.941Z,93.12
2018-10-06T00:07:48.373Z,92.90
2018-10-06T00:10:17.320Z,92.82
2018-10-06T00:12:46.223Z,92.69
2018-10-06T00:15:15.139Z,92.78
2018-10-06T00:17:43.944Z,92.91
2018-10-06T00:20:12.883Z,93.23
2018-10-06T00:22:41.719Z,93.21
2018-10-06T00:25:10.598Z,93.60
2018-10-06T00:27:39.453Z,93.15
2018-10-06T00:30:08.455Z,94.04
2018-10-06T00:32:37.343Z,94.57
2018-10-06T00:35:06.307Z,93.19
2018-10-06T00:37:35.130Z,92.81
2018-10-06T00:40:04.127Z,93.10
2018-10-06T00:42:32.981Z,92.73
2018-10-06T00:45:08.049Z,92.85
2018-10-06T00:47:36.891Z,92.71
2018-10-06T00:50:05.807Z,91.88
2018-10-06T00:52:34.627Z,92.48
2018-10-06T00:55:03.617Z,92.32
2018-10-06T00:57:32.441Z,92.57
2018-10-06T01:00:01.423Z,92.26
2018-10-06T01:02:30.325Z,91.90
2018-10-06T01:04:59.162Z,92.83
2018-10-06T01:07:28.153Z,93.56
2018-10-06T01:09:58.085Z,93.23
2018-10-06T01:12:27.509Z,93.48
2018-10-06T01:14:56.403Z,93.35
2018-10-06T01:17:25.331Z,93.71
2018-10-06T01:19:54.236Z,93.51
2018-10-06T01:22:23.143Z,93.13
2018-10-06T01:24:52.012Z,93.08
2018-10-06T01:27:20.935Z,93.45
2018-10-06T01:29:49.774Z,93.05
2018-10-06T01:32:18.654Z,92.62
2018-10-06T01:34:47.480Z,92.55
2018-10-06T01:37:16.383Z,93.16
2018-10-06T01:39:45.279Z,93.02
2018-10-06T01:42:14.164Z,92.97
2018-10-06T01:44:43.089Z,92.82
2018-10-06T01:47:12.015Z,91.98
2018-10-06T01:49:40.853Z,91.57
2018-10-06T01:52:09.741Z,91.04
2018-10-06T01:54:38.602Z,90.71
2018-10-06T01:57:07.873Z,90.58
2018-10-06T01:59:36.719Z,93.09
2018-10-06T02:02:05.811Z,94.05
2018-10-06T02:04:34.699Z,94.01
2018-10-06T02:07:03.532Z,93.94
2018-10-06T02:09:32.469Z,94.18
2018-10-06T02:12:01.380Z,94.30
2018-10-06T02:14:30.272Z,93.90
2018-10-06T02:16:59.085Z,93.86
2018-10-06T02:19:28.945Z,93.78
2018-10-06T02:21:57.890Z,93.71
2018-10-06T02:24:26.718Z,93.75
2018-10-06T02:26:55.538Z,94.01
2018-10-06T02:29:24.356Z,93.92
2018-10-06T02:31:53.213Z,94.48
2018-10-06T02:34:22.434Z,93.56
2018-10-06T02:36:51.357Z,93.77
2018-10-06T02:39:20.170Z,93.46
2018-10-06T02:41:48.989Z,93.13
2018-10-06T02:44:17.860Z,93.61
2018-10-06T02:46:46.789Z,93.47
2018-10-06T02:49:15.665Z,93.82
2018-10-06T02:51:44.460Z,95.14
2018-10-06T02:54:13.376Z,96.13
2018-10-06T02:56:42.273Z,94.87
2018-10-06T02:59:11.439Z,94.68
2018-10-06T03:01:40.332Z,94.08
2018-10-06T03:04:09.179Z,94.17
2018-10-06T03:06:38.031Z,94.42
2018-10-06T03:09:08.283Z,94.33
2018-10-06T03:11:37.281Z,94.58
2018-10-06T03:14:06.347Z,94.69
2018-10-06T03:16:35.242Z,94.01
2018-10-06T03:19:04.078Z,94.02
2018-10-06T03:21:32.922Z,93.61
2018-10-06T03:24:01.806Z,93.05
2018-10-06T03:26:30.670Z,93.95
2018-10-06T03:28:59.469Z,93.35
2018-10-06T03:31:28.364Z,94.27
2018-10-06T03:33:57.175Z,94.32
2018-10-06T03:36:26.096Z,94.28
2018-10-06T03:38:54.951Z,94.19
2018-10-06T03:41:23.849Z,93.80
2018-10-06T03:43:52.661Z,95.40
2018-10-06T03:46:21.625Z,95.15
2018-10-06T03:48:50.524Z,94.09
2018-10-06T03:51:19.424Z,93.68
2018-10-06T03:53:48.305Z,93.01
2018-10-06T03:56:17.220Z,93.13
2018-10-06T03:58:46.092Z,94.37
2018-10-06T04:01:15.007Z,93.48
2018-10-06T04:03:43.894Z,94.84
2018-10-06T04:06:12.716Z,96.17
2018-10-06T04:08:41.592Z,95.78
2018-10-06T04:11:10.462Z,95.56
2018-10-06T04:13:41.280Z,94.94
2018-10-06T04:16:10.416Z,94.80
2018-10-06T04:18:39.573Z,94.45
2018-10-06T04:21:08.456Z,93.27
2018-10-06T04:23:37.336Z,94.20
2018-10-06T04:26:06.702Z,94.16
2018-10-06T04:28:35.644Z,94.28
2018-10-06T04:31:04.527Z,94.06
2018-10-06T04:33:33.441Z,94.66
2018-10-06T04:36:02.298Z,95.66
2018-10-06T04:38:31.436Z,96.38
2018-10-06T04:41:00.416Z,96.10
2018-10-06T04:43:35.392Z,97.71
2018-10-06T04:46:04.246Z,98.67
2018-10-06T04:48:33.144Z,98.51
2018-10-06T04:51:02.011Z,98.82
2018-10-06T04:53:31.127Z,98.00
2018-10-06T04:56:00.198Z,97.87
2018-10-06T04:58:29.108Z,98.24
2018-10-06T05:00:57.982Z,98.44
2018-10-06T05:03:26.800Z,98.52
2018-10-06T05:05:55.688Z,98.42
2018-10-06T05:08:24.528Z,97.91
2018-10-06T05:10:53.393Z,97.04
2018-10-06T05:13:22.442Z,97.62
2018-10-06T05:15:51.319Z,97.46
2018-10-06T05:18:20.136Z,96.11
2018-10-06T05:20:48.959Z,95.06
2018-10-06T05:23:17.843Z,95.11
2018-10-06T05:25:46.807Z,95.29
2018-10-06T05:28:15.838Z,94.66
2018-10-06T05:30:44.699Z,95.30
2018-10-06T05:33:13.575Z,95.20
2018-10-06T05:35:42.431Z,94.68
2018-10-06T05:38:11.457Z,94.49
2018-10-06T05:40:41.100Z,94.55
2018-10-06T05:43:09.977Z,94.34
2018-10-06T05:45:38.877Z,94.07
2018-10-06T05:48:07.720Z,94.21
2018-10-06T05:50:36.727Z,94.41
2018-10-06T05:53:05.641Z,96.43
2018-10-06T05:55:34.525Z,97.73
2018-10-06T05:58:03.354Z,98.21
2018-10-06T06:00:32.347Z,98.33
2018-10-06T06:03:01.283Z,98.02
2018-10-06T06:05:30.161Z,97.71
2018-10-06T06:07:59.031Z,98.21
2018-10-06T06:10:27.868Z,98.78
2018-10-06T06:12:56.768Z,98.77
2018-10-06T06:15:25.739Z,98.00
2018-10-06T06:17:54.589Z,98.05
2018-10-06T06:20:23.457Z,98.73
2018-10-06T06:22:52.655Z,98.50
2018-10-06T06:25:21.484Z,98.27
2018-10-06T06:27:50.405Z,98.33
2018-10-06T06:30:19.280Z,98.23
2018-10-06T06:32:48.163Z,99.17
2018-10-06T06:35:17.034Z,99.39
2018-10-06T06:37:45.977Z,99.52
2018-10-06T06:40:14.871Z,99.15
2018-10-06T06:42:43.798Z,99.17
2018-10-06T06:45:13.531Z,99.14
2018-10-06T06:47:42.393Z,98.70
2018-10-06T06:50:11.240Z,98.42
2018-10-06T06:52:40.231Z,97.57
2018-10-06T06:55:09.075Z,96.70
2018-10-06T06:57:38.220Z,96.00
2018-10-06T07:00:07.271Z,96.67
2018-10-06T07:02:36.110Z,96.50
2018-10-06T07:05:05.149Z,95.58
2018-10-06T07:07:34.103Z,93.43
2018-10-06T07:10:03.013Z,92.03
2018-10-06T07:12:31.984Z,92.30
2018-10-06T07:15:00.856Z,93.58
2018-10-06T07:17:29.750Z,93.30
2018-10-06T07:19:59.335Z,91.42
2018-10-06T07:22:29.326Z,90.68
2018-10-06T07:24:58.270Z,90.66
2018-10-06T07:27:27.130Z,90.62
2018-10-06T07:29:56.072Z,91.09
2018-10-06T07:32:25.244Z,91.23
2018-10-06T07:34:54.371Z,90.30
2018-10-06T07:37:24.887Z,90.12
2018-10-06T07:39:55.114Z,90.18
2018-10-06T07:42:26.378Z,89.54
2018-10-06T07:44:56.962Z,88.69
2018-10-06T07:47:27.158Z,88.10
2018-10-06T07:49:57.377Z,86.76
2018-10-06T07:52:27.407Z,86.35
2018-10-06T07:54:57.430Z,86.20
2018-10-06T07:57:27.757Z,85.02
2018-10-06T07:59:59.541Z,85.68
2018-10-06T08:02:30.405Z,86.07
2018-10-06T08:05:00.511Z,86.72
2018-10-06T08:07:31.117Z,85.60
2018-10-06T08:10:01.496Z,85.91
2018-10-06T08:12:32.424Z,86.26
2018-10-06T08:15:02.692Z,85.93
2018-10-06T08:17:33.382Z,84.10
2018-10-06T08:20:04.151Z,82.93
2018-10-06T08:22:34.361Z,84.52
2018-10-06T08:25:03.326Z,83.12
2018-10-06T08:27:32.244Z,82.59
2018-10-06T08:30:01.104Z,81.67
2018-10-06T08:32:29.996Z,82.46
2018-10-06T08:34:58.893Z,81.50
2018-10-06T08:37:27.806Z,81.05
2018-10-06T08:39:56.634Z,81.39
2018-10-06T08:42:25.540Z,79.39
2018-10-06T08:44:54.413Z,79.72
2018-10-06T08:47:24.516Z,78.71
2018-10-06T08:49:53.472Z,78.66
2018-10-06T08:52:22.573Z,77.51
2018-10-06T08:54:52.009Z,77.28
2018-10-06T08:57:20.912Z,76.80
2018-10-06T08:59:49.813Z,76.17
2018-10-06T09:02:18.721Z,75.74
2018-10-06T09:04:47.554Z,75.70
2018-10-06T09:07:16.396Z,75.41
2018-10-06T09:09:45.327Z,75.29
2018-10-06T09:12:14.185Z,74.94
2018-10-06T09:14:43.085Z,73.62
2018-10-06T09:17:11.966Z,73.66
2018-10-06T09:19:40.877Z,73.67
2018-10-06T09:22:09.720Z,72.94
2018-10-06T09:24:38.680Z,72.97
2018-10-06T09:27:08.174Z,73.03
2018-10-06T09:29:37.145Z,72.54
2018-10-06T09:32:06.095Z,72.20
2018-10-06T09:34:35.198Z,72.51
2018-10-06T09:37:04.268Z,72.88
2018-10-06T09:39:33.168Z,70.80
2018-10-06T09:42:02.094Z,71.02
2018-10-06T09:44:30.930Z,71.69
2018-10-06T09:46:59.830Z,70.78
2018-10-06T09:49:29.023Z,71.20
2018-10-06T09:51:58.032Z,70.87
2018-10-06T09:54:26.998Z,70.08
2018-10-06T09:56:56.845Z,69.48
2018-10-06T09:59:26.303Z,70.49
2018-10-06T10:02:01.624Z,70.31
2018-10-06T10:04:30.559Z,70.59
2018-10-06T10:06:59.523Z,68.60
2018-10-06T10:09:28.861Z,69.44
2018-10-06T10:11:57.813Z,69.84
2018-10-06T10:14:26.803Z,69.61
2018-10-06T10:16:55.826Z,68.85
2018-10-06T10:19:25.129Z,67.49
2018-10-06T10:21:54.285Z,67.94
2018-10-06T10:24:23.194Z,68.16
2018-10-06T10:26:52.201Z,67.67
2018-10-06T10:29:21.224Z,67.06
2018-10-06T10:31:50.604Z,67.79
2018-10-06T10:34:19.605Z,66.39
2018-10-06T10:36:48.532Z,66.90
2018-10-06T10:39:17.385Z,66.68
2018-10-06T10:41:46.239Z,65.02
2018-10-06T10:44:15.231Z,64.59
2018-10-06T10:46:44.151Z,64.70
2018-10-06T10:49:13.425Z,63.83
2018-10-06T10:51:42.368Z,64.29
2018-10-06T10:54:11.216Z,63.69
2018-10-06T10:56:40.181Z,63.00
2018-10-06T10:59:09.082Z,63.57
2018-10-06T11:01:37.985Z,62.87
2018-10-06T11:04:06.891Z,62.32
2018-10-06T11:06:35.711Z,62.89
2018-10-06T11:09:05.888Z,61.37
2018-10-06T11:11:34.736Z,61.57
2018-10-06T11:14:03.907Z,60.62
2018-10-06T11:16:32.768Z,60.91
2018-10-06T11:19:01.747Z,61.46
2018-10-06T11:21:30.626Z,60.32
2018-10-06T11:23:59.516Z,60.66
2018-10-06T11:26:28.474Z,59.84
2018-10-06T11:28:57.335Z,59.80
2018-10-06T11:31:26.247Z,59.64
2018-10-06T11:33:55.134Z,60.73
2018-10-06T11:36:24.226Z,60.05
2018-10-06T11:38:53.115Z,61.23
2018-10-06T11:41:21.917Z,59.50
2018-10-06T11:43:50.845Z,58.66
2018-10-06T11:46:19.716Z,58.82
2018-10-06T11:48:48.594Z,59.45
2018-10-06T11:51:17.639Z,59.74
2018-10-06T11:53:46.541Z,59.43
2018-10-06T11:56:15.773Z,59.03
2018-10-06T11:58:45.534Z,59.25
2018-10-06T12:01:15.125Z,57.91
2018-10-06T12:03:44.109Z,58.64
2018-10-06T12:06:12.981Z,58.47
2018-10-06T12:08:41.983Z,58.31
2018-10-06T12:11:10.823Z,57.72
2018-10-06T12:13:39.708Z,57.58
2018-10-06T12:16:08.631Z,57.27
2018-10-06T12:18:37.448Z,56.64
2018-10-06T12:21:06.367Z,56.87
2018-10-06T12:23:35.277Z,56.55
2018-10-06T12:26:04.229Z,56.34
2018-10-06T12:28:33.111Z,57.21
2018-10-06T12:31:02.659Z,57.54
2018-10-06T12:33:31.508Z,56.33
2018-10-06T12:36:00.585Z,56.13
2018-10-06T12:38:29.372Z,56.32
2018-10-06T12:40:58.415Z,56.21
2018-10-06T12:43:27.272Z,55.29
2018-10-06T12:45:56.213Z,55.72
2018-10-06T12:48:25.047Z,56.39
2018-10-06T12:50:53.933Z,56.50
2018-10-06T12:53:23.148Z,56.43
2018-10-06T12:55:51.987Z,57.34
2018-10-06T12:58:20.818Z,56.62
2018-10-06T13:00:49.722Z,56.63
2018-10-06T13:03:18.576Z,56.21
2018-10-06T13:05:47.502Z,55.70
2018-10-06T13:08:16.348Z,56.87
2018-10-06T13:10:45.166Z,56.54
2018-10-06T13:13:14.090Z,56.75
2018-10-06T13:15:43.299Z,56.80
2018-10-06T13:18:12.481Z,55.93
2018-10-06T13:20:41.328Z,55.49
2018-10-06T13:23:10.314Z,56.11
2018-10-06T13:25:39.127Z,56.15
2018-10-06T13:28:08.238Z,55.47
2018-10-06T13:30:37.099Z,55.81
2018-10-06T13:33:06.056Z,55.53
2018-10-06T13:35:34.891Z,55.03
2018-10-06T13:38:03.785Z,55.68
2018-10-06T13:40:32.619Z,55.40
2018-10-06T13:43:01.549Z,56.04
2018-10-06T13:45:36.414Z,55.85
2018-10-06T13:48:05.616Z,56.73
2018-10-06T13:50:34.423Z,55.30
2018-10-06T13:53:03.385Z,56.17
2018-10-06T13:55:32.200Z,56.45
2018-10-06T13:58:01.165Z,55.89
2018-10-06T14:00:30.035Z,57.29
2018-10-06T14:02:59.277Z,56.68
2018-10-06T14:05:28.235Z,56.24
2018-10-06T14:07:57.110Z,55.82
2018-10-06T14:10:25.985Z,55.60
2018-10-06T14:12:54.938Z,57.06
2018-10-06T14:15:23.798Z,57.13
2018-10-06T14:17:52.789Z,56.00
2018-10-06T14:20:21.861Z,56.77
2018-10-06T14:22:50.655Z,56.42
2018-10-06T14:25:19.704Z,57.19
2018-10-06T14:27:50.105Z,57.00
2018-10-06T14:30:19.120Z,57.19
2018-10-06T14:32:48.256Z,57.11
2018-10-06T14:35:17.769Z,58.34
2018-10-06T14:37:46.782Z,58.92
2018-10-06T14:40:15.784Z,57.23
2018-10-06T14:42:44.800Z,58.30
2018-10-06T14:45:13.628Z,58.67
2018-10-06T14:47:42.985Z,57.82
2018-10-06T14:50:12.017Z,57.43
2018-10-06T14:52:40.891Z,57.49
2018-10-06T14:55:10.050Z,57.70
2018-10-06T14:57:39.183Z,57.88
2018-10-06T15:00:08.955Z,58.32
2018-10-06T15:02:38.089Z,57.67
2018-10-06T15:05:06.999Z,58.06
2018-10-06T15:07:36.285Z,58.08
2018-10-06T15:10:05.604Z,58.10
2018-10-06T15:12:34.488Z,59.77
2018-10-06T15:15:03.475Z,59.51
2018-10-06T15:17:32.341Z,58.66
2018-10-06T15:20:01.356Z,59.88
2018-10-06T15:22:30.367Z,59.70
2018-10-06T15:25:00.038Z,60.57
2018-10-06T15:27:28.910Z,60.37
2018-10-06T15:29:57.739Z,60.43
2018-10-06T15:32:26.659Z,60.85
2018-10-06T15:34:55.514Z,61.04
2018-10-06T15:37:24.480Z,61.78
2018-10-06T15:39:53.460Z,62.18
2018-10-06T15:42:22.329Z,62.11
2018-10-06T15:44:51.287Z,62.23
2018-10-06T15:47:20.179Z,62.27
2018-10-06T15:49:49.001Z,63.50
2018-10-06T15:52:17.906Z,63.13
2018-10-06T15:54:46.703Z,63.28
2018-10-06T15:57:15.641Z,62.60
2018-10-06T15:59:44.464Z,62.91
2018-10-06T16:02:13.505Z,63.79
2018-10-06T16:04:42.388Z,63.94
2018-10-06T16:07:11.198Z,64.50
2018-10-06T16:09:40.071Z,64.96
2018-10-06T16:12:08.921Z,65.94
2018-10-06T16:14:37.847Z,66.39
2018-10-06T16:17:06.789Z,66.66
2018-10-06T16:19:35.671Z,68.01
2018-10-06T16:22:04.657Z,68.48
2018-10-06T16:24:33.504Z,67.97
2018-10-06T16:27:02.304Z,68.52
2018-10-06T16:29:31.166Z,69.16
2018-10-06T16:31:59.932Z,69.61
2018-10-06T16:34:28.913Z,70.94
2018-10-06T16:36:57.742Z,71.19
2018-10-06T16:39:26.569Z,72.21
2018-10-06T16:41:55.401Z,72.02
2018-10-06T16:44:24.271Z,71.67
2018-10-06T16:46:53.224Z,71.65
2018-10-06T16:49:22.406Z,71.84
2018-10-06T16:51:51.362Z,72.23
2018-10-06T16:54:20.241Z,72.92
2018-10-06T16:56:49.043Z,73.69
2018-10-06T16:59:17.884Z,74.19
2018-10-06T17:01:46.805Z,74.46
2018-10-06T17:04:15.638Z,74.67
2018-10-06T17:06:45.305Z,75.31
2018-10-06T17:09:14.176Z,75.75
2018-10-06T17:11:43.237Z,76.09
2018-10-06T17:14:12.140Z,76.78
2018-10-06T17:16:40.995Z,77.46
2018-10-06T17:19:09.847Z,78.57
2018-10-06T17:21:38.980Z,77.96
2018-10-06T17:24:08.005Z,78.87
2018-10-06T17:26:36.884Z,79.08
2018-10-06T17:29:05.751Z,79.43
2018-10-06T17:31:34.604Z,79.62
2018-10-06T17:34:03.514Z,79.88
2018-10-06T17:36:32.363Z,79.84
2018-10-06T17:39:01.240Z,80.38
2018-10-06T17:41:30.120Z,80.80
2018-10-06T17:44:00.015Z,80.94
2018-10-06T17:46:29.041Z,81.50
2018-10-06T17:48:57.856Z,81.30
2018-10-06T17:51:26.689Z,82.39
2018-10-06T17:53:55.484Z,81.97
2018-10-06T17:56:24.302Z,82.65
2018-10-06T17:58:53.260Z,81.86
2018-10-06T18:01:22.106Z,82.31
2018-10-06T18:03:50.986Z,82.15
2018-10-06T18:06:19.813Z,81.99
2018-10-06T18:08:48.764Z,82.53
2018-10-06T18:11:17.946Z,82.69
2018-10-06T18:13:47.100Z,82.82
2018-10-06T18:16:16.226Z,82.68
2018-10-06T18:18:45.286Z,82.68
2018-10-06T18:21:14.226Z,82.64
2018-10-06T18:23:43.727Z,81.43
2018-10-06T18:26:12.863Z,81.65
2018-10-06T18:28:42.649Z,80.75
2018-10-06T18:31:11.462Z,81.23
2018-10-06T18:33:40.818Z,80.97
2018-10-06T18:36:10.064Z,80.98
2018-10-06T18:38:39.192Z,80.63
2018-10-06T18:41:08.669Z,80.47
2018-10-06T18:43:37.564Z,80.60
2018-10-06T18:46:06.423Z,80.46
2018-10-06T18:48:35.439Z,80.34
2018-10-06T18:51:04.270Z,80.28
2018-10-06T18:53:33.555Z,80.32
2018-10-06T18:56:02.392Z,80.40
2018-10-06T18:58:31.479Z,79.72
2018-10-06T19:01:00.447Z,80.29
2018-10-06T19:03:29.756Z,80.49
2018-10-06T19:05:58.563Z,80.92
2018-10-06T19:08:27.388Z,80.81
2018-10-06T19:10:56.874Z,80.94
2018-10-06T19:13:25.885Z,80.85
2018-10-06T19:15:54.758Z,81.06
2018-10-06T19:18:23.776Z,80.21
2018-10-06T19:20:52.640Z,80.18
2018-10-06T19:23:21.550Z,79.59
2018-10-06T19:25:51.091Z,79.57
2018-10-06T19:28:19.847Z,79.47
2018-10-06T19:30:48.993Z,79.21
2018-10-06T19:33:18.102Z,79.48
2018-10-06T19:35:46.944Z,79.81
2018-10-06T19:38:16.011Z,79.14
2018-10-06T19:40:44.893Z,78.17
2018-10-06T19:43:14.513Z,78.14
2018-10-06T19:45:43.448Z,78.15
2018-10-06T19:48:12.252Z,78.35
2018-10-06T19:50:41.461Z,79.08
2018-10-06T19:53:10.310Z,78.69
2018-10-06T19:55:39.354Z,78.82
2018-10-06T19:58:08.522Z,79.48
2018-10-06T20:00:37.364Z,79.79
2018-10-06T20:03:06.466Z,80.12
2018-10-06T20:05:35.600Z,79.72
2018-10-06T20:08:04.548Z,79.64
2018-10-06T20:10:33.357Z,79.65
2018-10-06T20:13:02.561Z,79.83
2018-10-06T20:15:31.863Z,80.11
2018-10-06T20:18:00.685Z,80.69
2018-10-06T20:20:29.513Z,80.58
2018-10-06T20:22:58.351Z,80.35
2018-10-06T20:25:27.175Z,80.37
2018-10-06T20:27:56.191Z,80.38
2018-10-06T20:30:25.641Z,80.56
2018-10-06T20:33:01.423Z,80.39
2018-10-06T20:35:30.229Z,80.56
2018-10-06T20:37:59.221Z,81.49
2018-10-06T20:40:28.030Z,81.93
2018-10-06T20:42:56.930Z,82.27
2018-10-06T20:45:31.688Z,82.29
2018-10-06T20:48:00.657Z,82.33
2018-10-06T20:50:29.493Z,83.51
2018-10-06T20:52:58.568Z,84.15
2018-10-06T20:55:27.539Z,85.11
2018-10-06T20:57:56.428Z,84.87
2018-10-06T21:00:25.403Z,84.15
2018-10-06T21:02:54.289Z,84.29
2018-10-06T21:05:23.109Z,84.85
2018-10-06T21:07:52.372Z,85.35
2018-10-06T21:10:21.218Z,86.78
2018-10-06T21:12:50.111Z,87.33
2018-10-06T21:15:19.101Z,87.81
2018-10-06T21:17:48.023Z,87.49
2018-10-06T21:20:16.879Z,87.86
2018-10-06T21:22:45.671Z,87.34
2018-10-06T21:25:14.607Z,87.43
2018-10-06T21:27:43.460Z,88.07
2018-10-06T21:30:12.319Z,88.90
2018-10-06T21:32:41.290Z,88.12
2018-10-06T21:35:10.247Z,88.94
2018-10-06T21:37:39.315Z,89.68
2018-10-06T21:40:08.247Z,89.90
2018-10-06T21:42:37.053Z,90.87
2018-10-06T21:45:06.389Z,90.96
2018-10-06T21:47:35.199Z,91.96
2018-10-06T21:50:04.219Z,90.83
2018-10-06T21:52:33.015Z,91.50
2018-10-06T21:55:01.900Z,91.43
2018-10-06T21:57:30.752Z,91.97
2018-10-06T21:59:59.662Z,92.41
2018-10-06T22:02:28.539Z,91.93
2018-10-06T22:04:57.368Z,92.02
2018-10-06T22:07:26.205Z,92.01
2018-10-06T22:09:55.059Z,92.01
2018-10-06T22:12:23.972Z,92.06
2018-10-06T22:14:52.916Z,92.70
2018-10-06T22:17:21.773Z,93.33
2018-10-06T22:19:50.703Z,92.32
2018-10-06T22:22:19.565Z,91.74
2018-10-06T22:24:48.752Z,91.50
2018-10-06T22:27:17.752Z,92.77
2018-10-06T22:29:46.627Z,93.14
2018-10-06T22:32:15.485Z,92.20
2018-10-06T22:34:44.329Z,92.97
2018-10-06T22:37:13.157Z,92.35
2018-10-06T22:39:42.133Z,92.35
2018-10-06T22:42:10.957Z,92.49
2018-10-06T22:44:39.837Z,92.12
2018-10-06T22:47:08.980Z,91.85
2018-10-06T22:49:37.844Z,91.68
2018-10-06T22:52:06.997Z,91.80
2018-10-06T22:54:35.837Z,91.82
2018-10-06T22:57:04.739Z,91.81
2018-10-06T22:59:33.602Z,92.04
2018-10-06T23:02:02.445Z,92.97
2018-10-06T23:04:31.668Z,93.03
2018-10-06T23:07:00.751Z,94.03
2018-10-06T23:09:29.610Z,94.06
2018-10-06T23:11:58.443Z,94.35
2018-10-06T23:14:27.347Z,95.10
2018-10-06T23:16:56.315Z,95.54
2018-10-06T23:19:25.207Z,96.80
2018-10-06T23:21:54.060Z,97.37
2018-10-06T23:24:22.958Z,97.63
2018-10-06T23:26:51.814Z,97.90
2018-10-06T23:29:20.791Z,96.45
2018-10-06T23:31:49.636Z,96.51
2018-10-06T23:34:18.488Z,97.21
2018-10-06T23:36:47.284Z,97.60
2018-10-06T23:39:16.129Z,97.89
2018-10-06T23:41:45.007Z,98.18
2018-10-06T23:44:13.851Z,98.59
2018-10-06T23:46:42.673Z,99.04
2018-10-06T23:49:11.575Z,99.22
2018-10-06T23:51:40.419Z,99.54
2018-10-06T23:54:09.737Z,99.70
2018-10-06T23:56:38.603Z,100.00
2018-10-06T23:59:07.668Z,100.00
